createdAt,value
2019-02-04T00:00:02.009Z,101122.16
2019-02-04T00:02:09.842Z,101130.75
2019-02-04T00:04:16.049Z,101131.63
2019-02-04T00:06:22.091Z,101129.03
2019-02-04T00:08:29.691Z,101130.74
2019-02-04T00:10:35.859Z,101130.33
2019-02-04T00:12:42.020Z,101132.45
2019-02-04T00:14:48.087Z,101138.08
2019-02-04T00:16:54.638Z,101140.66
2019-02-04T00:19:00.881Z,101143.66
2019-02-04T00:21:06.948Z,101142.37
2019-02-04T00:23:13.006Z,101147.99
2019-02-04T00:25:21.577Z,101154.00
2019-02-04T00:27:26.760Z,101162.63
2019-02-04T00:29:32.722Z,101170.83
2019-02-04T00:31:38.790Z,101179.46
2019-02-04T00:33:44.917Z,101182.50
2019-02-04T00:35:50.871Z,101191.55
2019-02-04T00:37:57.140Z,101194.09
2019-02-04T00:40:03.490Z,101197.92
2019-02-04T00:42:09.580Z,101207.42
2019-02-04T00:44:15.622Z,101207.42
2019-02-04T00:46:21.777Z,101206.09
2019-02-04T00:48:29.476Z,101205.20
2019-02-04T00:50:35.516Z,101213.37
2019-02-04T00:52:42.006Z,101215.08
2019-02-04T00:54:48.047Z,101214.20
2019-02-04T00:56:54.076Z,101215.12
2019-02-04T00:59:00.375Z,101221.13
2019-02-04T01:01:06.308Z,101222.01
2019-02-04T01:03:13.986Z,101224.16
2019-02-04T01:05:21.114Z,101223.72
2019-02-04T01:07:27.111Z,101224.59
2019-02-04T01:09:33.298Z,101226.30
2019-02-04T01:11:39.451Z,101230.17
2019-02-04T01:13:45.376Z,101232.77
2019-02-04T01:15:52.376Z,101230.17
2019-02-04T01:17:58.523Z,101234.05
2019-02-04T01:20:10.949Z,101241.80
2019-02-04T01:22:17.476Z,101245.67
2019-02-04T01:24:23.478Z,101259.00
2019-02-04T01:26:29.516Z,101255.59
2019-02-04T01:28:35.598Z,101263.77
2019-02-04T01:30:41.735Z,101271.09
2019-02-04T01:32:47.976Z,101276.27
2019-02-04T01:34:54.042Z,101287.94
2019-02-04T01:37:00.107Z,101284.42
2019-02-04T01:39:09.523Z,101283.09
2019-02-04T01:41:15.920Z,101284.01
2019-02-04T01:43:22.054Z,101288.77
2019-02-04T01:45:28.114Z,101291.81
2019-02-04T01:47:34.165Z,101297.39
2019-02-04T01:49:40.106Z,101301.23
2019-02-04T01:51:46.169Z,101301.69
2019-02-04T01:53:52.229Z,101306.02
2019-02-04T01:55:58.269Z,101305.98
2019-02-04T01:58:04.239Z,101312.02
2019-02-04T02:00:18.788Z,101312.86
2019-02-04T02:02:24.849Z,101318.02
2019-02-04T02:04:30.799Z,101317.19
2019-02-04T02:06:36.840Z,101321.52
2019-02-04T02:08:42.896Z,101312.44
2019-02-04T02:10:48.852Z,101320.19
2019-02-04T02:12:55.216Z,101324.05
2019-02-04T02:15:01.268Z,101328.34
2019-02-04T02:17:07.540Z,101326.59
2019-02-04T02:19:13.608Z,101326.18
2019-02-04T02:21:19.858Z,101330.93
2019-02-04T02:23:25.999Z,101331.81
2019-02-04T02:25:31.975Z,101329.65
2019-02-04T02:27:39.234Z,101337.40
2019-02-04T02:29:45.195Z,101339.98
2019-02-04T02:31:51.655Z,101345.16
2019-02-04T02:33:57.606Z,101351.66
2019-02-04T02:36:03.559Z,101363.28
2019-02-04T02:38:09.635Z,101360.70
2019-02-04T02:40:28.484Z,101368.46
2019-02-04T02:42:34.522Z,101377.55
2019-02-04T02:44:40.477Z,101375.38
2019-02-04T02:46:46.449Z,101376.67
2019-02-04T02:48:52.402Z,101376.30
2019-02-04T02:50:58.552Z,101377.59
2019-02-04T02:53:04.504Z,101381.01
2019-02-04T02:55:14.845Z,101382.30
2019-02-04T02:57:20.801Z,101386.63
2019-02-04T02:59:26.860Z,101388.77
2019-02-04T03:01:32.922Z,101393.11
2019-02-04T03:03:38.863Z,101398.69
2019-02-04T03:05:44.833Z,101403.86
2019-02-04T03:07:51.288Z,101412.08
2019-02-04T03:09:57.339Z,101412.91
2019-02-04T03:12:03.409Z,101420.70
2019-02-04T03:14:10.072Z,101427.59
2019-02-04T03:16:15.996Z,101427.59
2019-02-04T03:18:21.983Z,101439.30
2019-02-04T03:20:28.335Z,101432.34
2019-02-04T03:22:34.708Z,101437.55
2019-02-04T03:24:41.995Z,101434.92
2019-02-04T03:26:47.907Z,101442.25
2019-02-04T03:28:54.093Z,101446.13
2019-02-04T03:31:00.475Z,101452.60
2019-02-04T03:33:06.632Z,101455.60
2019-02-04T03:35:16.841Z,101463.81
2019-02-04T03:37:22.834Z,101465.06
2019-02-04T03:39:29.084Z,101465.88
2019-02-04T03:41:35.017Z,101462.88
2019-02-04T03:43:40.998Z,101468.46
2019-02-04T03:45:47.561Z,101467.58
2019-02-04T03:48:04.339Z,101473.62
2019-02-04T03:50:01.296Z,101479.20
2019-02-04T03:52:08.379Z,101485.66
2019-02-04T03:54:14.459Z,101493.37
2019-02-04T03:56:20.709Z,101502.45
2019-02-04T03:58:26.659Z,101501.58
2019-02-04T04:00:35.991Z,101508.09
2019-02-04T04:02:42.161Z,101507.64
2019-02-04T04:04:48.193Z,101513.67
2019-02-04T04:06:54.462Z,101522.72
2019-02-04T04:09:00.413Z,101527.38
2019-02-04T04:11:06.455Z,101530.82
2019-02-04T04:13:12.417Z,101531.71
2019-02-04T04:15:18.774Z,101539.00
2019-02-04T04:17:24.856Z,101545.86
2019-02-04T04:19:30.902Z,101545.40
2019-02-04T04:21:37.166Z,101550.16
2019-02-04T04:23:44.794Z,101557.42
2019-02-04T04:25:50.794Z,101554.38
2019-02-04T04:27:57.066Z,101562.53
2019-02-04T04:30:03.017Z,101569.81
2019-02-04T04:32:09.084Z,101565.06
2019-02-04T04:34:19.666Z,101574.50
2019-02-04T04:36:25.691Z,101566.36
2019-02-04T04:38:31.752Z,101581.86
2019-02-04T04:40:37.999Z,101587.91
2019-02-04T04:42:44.482Z,101587.02
2019-02-04T04:44:51.045Z,101591.34
2019-02-04T04:46:57.306Z,101592.64
2019-02-04T04:49:03.346Z,101596.52
2019-02-04T04:51:11.554Z,101604.27
2019-02-04T04:53:17.615Z,101605.09
2019-02-04T04:55:27.588Z,101610.21
2019-02-04T04:57:33.605Z,101613.66
2019-02-04T04:59:39.565Z,101618.83
2019-02-04T05:01:45.512Z,101616.19
2019-02-04T05:03:51.595Z,101617.89
2019-02-04T05:05:57.732Z,101623.06
2019-02-04T05:08:04.314Z,101623.94
2019-02-04T05:10:17.588Z,101625.16
2019-02-04T05:12:23.599Z,101632.91
2019-02-04T05:14:29.835Z,101645.36
2019-02-04T05:16:35.786Z,101653.58
2019-02-04T05:18:41.847Z,101663.86
2019-02-04T05:20:47.904Z,101666.02
2019-02-04T05:22:53.844Z,101665.59
2019-02-04T05:25:00.023Z,101670.24
2019-02-04T05:27:06.371Z,101681.09
2019-02-04T05:29:12.961Z,101685.80
2019-02-04T05:31:18.891Z,101687.09
2019-02-04T05:33:24.955Z,101699.52
2019-02-04T05:35:31.412Z,101716.33
2019-02-04T05:37:37.588Z,101715.02
2019-02-04T05:39:43.725Z,101713.67
2019-02-04T05:41:49.787Z,101725.77
2019-02-04T05:43:57.699Z,101730.88
2019-02-04T05:46:08.900Z,101732.64
2019-02-04T05:48:14.908Z,101740.33
2019-02-04T05:50:21.690Z,101744.98
2019-02-04T05:52:27.639Z,101757.19
2019-02-04T05:54:34.213Z,101760.67
2019-02-04T05:56:40.364Z,101766.19
2019-02-04T05:58:46.325Z,101773.26
2019-02-04T06:00:52.344Z,101773.05
2019-02-04T06:02:58.304Z,101771.20
2019-02-04T06:05:05.875Z,101780.31
2019-02-04T06:07:12.145Z,101785.89
2019-02-04T06:09:18.124Z,101799.08
2019-02-04T06:11:24.373Z,101795.33
2019-02-04T06:13:30.328Z,101802.25
2019-02-04T06:15:36.698Z,101813.91
2019-02-04T06:17:42.755Z,101810.03
2019-02-04T06:19:48.800Z,101808.95
2019-02-04T06:22:00.731Z,101814.30
2019-02-04T06:24:10.546Z,101826.36
2019-02-04T06:26:17.756Z,101834.58
2019-02-04T06:28:30.687Z,101837.00
2019-02-04T06:30:43.877Z,101844.36
2019-02-04T06:32:54.510Z,101849.53
2019-02-04T06:35:01.714Z,101855.33
2019-02-04T06:37:07.656Z,101863.55
2019-02-04T06:39:13.629Z,101864.02
2019-02-04T06:41:19.542Z,101872.98
2019-02-04T06:43:27.134Z,101880.73
2019-02-04T06:45:34.654Z,101888.02
2019-02-04T06:47:41.435Z,101890.02
2019-02-04T06:49:47.374Z,101893.17
2019-02-04T06:51:55.005Z,101899.22
2019-02-04T06:54:01.317Z,101905.38
2019-02-04T06:56:07.265Z,101909.23
2019-02-04T06:58:13.230Z,101920.34
2019-02-04T07:00:20.305Z,101931.20
2019-02-04T07:02:26.488Z,101939.20
2019-02-04T07:04:33.137Z,101939.91
2019-02-04T07:06:39.085Z,101946.31
2019-02-04T07:08:45.164Z,101952.31
2019-02-04T07:10:52.734Z,101958.19
2019-02-04T07:12:59.091Z,101960.62
2019-02-04T07:15:05.459Z,101966.09
2019-02-04T07:17:11.395Z,101968.27
2019-02-04T07:19:24.235Z,101969.99
2019-02-04T07:21:26.094Z,101972.16
2019-02-04T07:23:32.046Z,101973.44
2019-02-04T07:25:38.395Z,101975.95
2019-02-04T07:27:44.375Z,101979.09
2019-02-04T07:29:50.535Z,101979.09
2019-02-04T07:31:56.674Z,101979.56
2019-02-04T07:34:03.246Z,101980.33
2019-02-04T07:36:09.296Z,101985.47
2019-02-04T07:38:17.094Z,101994.52
2019-02-04T07:40:34.465Z,101991.52
2019-02-04T07:42:40.482Z,101991.22
2019-02-04T07:44:46.414Z,101998.00
2019-02-04T07:46:52.466Z,101989.73
2019-02-04T07:48:58.875Z,102000.82
2019-02-04T07:51:04.959Z,101999.94
2019-02-04T07:53:11.152Z,102008.16
2019-02-04T07:55:17.125Z,102010.72
2019-02-04T07:57:24.714Z,102011.53
2019-02-04T07:59:30.752Z,102018.47
2019-02-04T08:01:36.722Z,102021.08
2019-02-04T08:03:42.744Z,102015.88
2019-02-04T08:05:50.032Z,102015.44
2019-02-04T08:07:56.085Z,102024.31
2019-02-04T08:10:03.165Z,102028.86
2019-02-04T08:12:09.131Z,102029.66
2019-02-04T08:14:15.284Z,102039.34
2019-02-04T08:16:21.355Z,102037.57
2019-02-04T08:18:27.311Z,102028.27
2019-02-04T08:20:33.279Z,102036.69
2019-02-04T08:22:39.934Z,102043.57
2019-02-04T08:24:46.070Z,102042.49
2019-02-04T08:26:52.227Z,102044.09
2019-02-04T08:28:58.195Z,102043.02
2019-02-04T08:31:04.154Z,102049.64
2019-02-04T08:33:10.195Z,102055.03
2019-02-04T08:35:16.481Z,102061.17
2019-02-04T08:37:22.913Z,102061.22
2019-02-04T08:39:28.995Z,102066.94
2019-02-04T08:41:35.035Z,102074.55
2019-02-04T08:43:41.273Z,102076.89
2019-02-04T08:45:48.891Z,102083.11
2019-02-04T08:47:56.261Z,102085.11
2019-02-04T08:50:02.931Z,102084.38
2019-02-04T08:52:08.899Z,102084.41
2019-02-04T08:54:15.890Z,102088.03
2019-02-04T08:56:22.217Z,102094.52
2019-02-04T08:58:28.476Z,102102.52
2019-02-04T09:00:34.534Z,102111.19
2019-02-04T09:02:40.612Z,102110.55
2019-02-04T09:04:46.554Z,102120.73
2019-02-04T09:06:52.525Z,102114.59
2019-02-04T09:08:58.665Z,102120.77
2019-02-04T09:11:05.360Z,102126.71
2019-02-04T09:13:11.405Z,102139.81
2019-02-04T09:15:17.554Z,102140.89
2019-02-04T09:17:23.696Z,102147.17
2019-02-04T09:19:30.895Z,102142.46
2019-02-04T09:21:36.862Z,102149.84
2019-02-04T09:23:42.790Z,102152.51
2019-02-04T09:25:48.745Z,102162.03
2019-02-04T09:27:55.104Z,102165.45
2019-02-04T09:30:01.085Z,102161.64
2019-02-04T09:32:07.451Z,102161.09
2019-02-04T09:34:14.299Z,102161.65
2019-02-04T09:36:20.354Z,102161.51
2019-02-04T09:38:27.040Z,102160.77
2019-02-04T09:40:42.616Z,102166.33
2019-02-04T09:42:48.684Z,102171.70
2019-02-04T09:44:54.737Z,102173.20
2019-02-04T09:47:01.314Z,102178.66
2019-02-04T09:49:07.352Z,102185.91
2019-02-04T09:51:13.519Z,102191.89
2019-02-04T09:53:19.570Z,102189.08
2019-02-04T09:55:30.234Z,102191.80
2019-02-04T09:57:36.184Z,102202.98
2019-02-04T09:59:42.532Z,102209.44
2019-02-04T10:01:48.592Z,102204.97
2019-02-04T10:03:55.585Z,102212.48
2019-02-04T10:06:01.624Z,102207.05
2019-02-04T10:08:08.500Z,102214.52
2019-02-04T10:10:21.635Z,102216.10
2019-02-04T10:12:29.004Z,102219.39
2019-02-04T10:14:35.169Z,102219.27
2019-02-04T10:16:41.127Z,102231.34
2019-02-04T10:18:47.293Z,102234.88
2019-02-04T10:20:53.707Z,102232.00
2019-02-04T10:22:59.705Z,102231.13
2019-02-04T10:25:09.323Z,102236.95
2019-02-04T10:27:15.422Z,102239.34
2019-02-04T10:29:21.574Z,102231.25
2019-02-04T10:31:28.244Z,102239.64
2019-02-04T10:33:34.382Z,102241.16
2019-02-04T10:35:52.594Z,102237.53
2019-02-04T10:37:58.777Z,102245.03
2019-02-04T10:40:22.521Z,102252.70
2019-02-04T10:42:28.610Z,102256.38
2019-02-04T10:44:34.525Z,102259.70
2019-02-04T10:46:42.256Z,102260.39
2019-02-04T10:48:55.667Z,102258.02
2019-02-04T10:51:06.798Z,102261.63
2019-02-04T10:53:13.880Z,102262.18
2019-02-04T10:55:20.045Z,102265.34
2019-02-04T10:57:26.158Z,102266.99
2019-02-04T10:59:32.108Z,102274.72
2019-02-04T11:01:38.198Z,102269.08
2019-02-04T11:03:45.539Z,102271.57
2019-02-04T11:05:51.534Z,102273.38
2019-02-04T11:08:00.244Z,102281.89
2019-02-04T11:10:10.974Z,102283.05
2019-02-04T11:12:18.163Z,102281.84
2019-02-04T11:14:24.307Z,102287.09
2019-02-04T11:16:31.294Z,102280.80
2019-02-04T11:18:37.250Z,102281.64
2019-02-04T11:20:43.549Z,102285.09
2019-02-04T11:22:49.651Z,102282.34
2019-02-04T11:24:55.821Z,102288.84
2019-02-04T11:27:03.695Z,102290.48
2019-02-04T11:29:09.977Z,102292.42
2019-02-04T11:31:16.741Z,102295.27
2019-02-04T11:33:23.611Z,102301.98
2019-02-04T11:35:30.118Z,102307.08
2019-02-04T11:37:36.413Z,102313.11
2019-02-04T11:39:44.039Z,102316.03
2019-02-04T11:41:50.313Z,102319.64
2019-02-04T11:43:57.323Z,102318.34
2019-02-04T11:46:03.575Z,102324.09
2019-02-04T11:48:13.330Z,102329.79
2019-02-04T11:50:19.235Z,102335.85
2019-02-04T11:52:25.392Z,102339.75
2019-02-04T11:54:31.645Z,102338.94
2019-02-04T11:56:37.935Z,102345.39
2019-02-04T11:58:43.861Z,102352.42
2019-02-04T12:00:49.821Z,102348.05
2019-02-04T12:02:57.615Z,102348.34
2019-02-04T12:05:03.543Z,102360.16
2019-02-04T12:07:09.735Z,102364.63
2019-02-04T12:09:15.892Z,102362.16
2019-02-04T12:11:21.935Z,102369.59
2019-02-04T12:13:28.013Z,102370.47
2019-02-04T12:15:33.948Z,102369.48
2019-02-04T12:17:40.111Z,102373.67
2019-02-04T12:19:46.034Z,102376.89
2019-02-04T12:21:52.324Z,102376.05
2019-02-04T12:23:59.916Z,102387.88
2019-02-04T12:26:07.507Z,102388.80
2019-02-04T12:28:13.675Z,102383.80
2019-02-04T12:30:27.092Z,102391.23
2019-02-04T12:32:35.897Z,102390.22
2019-02-04T12:34:41.866Z,102393.25
2019-02-04T12:36:48.148Z,102395.14
2019-02-04T12:38:54.384Z,102395.44
2019-02-04T12:41:00.320Z,102396.97
2019-02-04T12:43:06.305Z,102398.55
2019-02-04T12:45:26.894Z,102396.55
2019-02-04T12:47:33.045Z,102397.18
2019-02-04T12:49:39.115Z,102403.33
2019-02-04T12:51:45.347Z,102404.69
2019-02-04T12:53:52.410Z,102405.04
2019-02-04T12:55:58.599Z,102403.88
2019-02-04T12:58:05.476Z,102407.63
2019-02-04T13:00:21.577Z,102411.59
2019-02-04T13:02:27.633Z,102411.60
2019-02-04T13:04:33.657Z,102414.81
2019-02-04T13:06:39.736Z,102419.64
2019-02-04T13:08:45.655Z,102425.12
2019-02-04T13:10:51.766Z,102426.20
2019-02-04T13:12:57.678Z,102435.63
2019-02-04T13:15:03.736Z,102447.00
2019-02-04T13:17:09.714Z,102438.49
2019-02-04T13:19:15.759Z,102436.08
2019-02-04T13:21:22.121Z,102431.08
2019-02-04T13:23:28.169Z,102419.89
2019-02-04T13:25:34.125Z,102427.98
2019-02-04T13:27:41.439Z,102428.61
2019-02-04T13:29:47.484Z,102435.89
2019-02-04T13:31:53.728Z,102441.16
2019-02-04T13:33:59.685Z,102437.35
2019-02-04T13:36:06.159Z,102439.63
2019-02-04T13:38:12.288Z,102442.97
2019-02-04T13:40:30.010Z,102443.84
2019-02-04T13:42:36.284Z,102443.70
2019-02-04T13:44:42.354Z,102444.45
2019-02-04T13:46:49.327Z,102446.94
2019-02-04T13:48:55.595Z,102447.30
2019-02-04T13:51:01.957Z,102444.84
2019-02-04T13:53:08.326Z,102448.92
2019-02-04T13:55:18.902Z,102451.59
2019-02-04T13:57:24.936Z,102453.50
2019-02-04T13:59:32.745Z,102453.91
2019-02-04T14:01:39.110Z,102460.10
2019-02-04T14:03:48.324Z,102462.67
2019-02-04T14:05:54.595Z,102460.55
2019-02-04T14:08:01.142Z,102465.14
2019-02-04T14:10:20.842Z,102464.75
2019-02-04T14:12:27.291Z,102465.16
2019-02-04T14:14:35.282Z,102464.49
2019-02-04T14:16:41.356Z,102474.89
2019-02-04T14:18:47.830Z,102471.56
2019-02-04T14:20:53.855Z,102474.66
2019-02-04T14:22:59.924Z,102473.33
2019-02-04T14:25:08.395Z,102473.74
2019-02-04T14:27:14.413Z,102471.41
2019-02-04T14:29:20.458Z,102473.50
2019-02-04T14:31:26.717Z,102476.73
2019-02-04T14:33:34.668Z,102469.66
2019-02-04T14:35:40.859Z,102473.39
2019-02-04T14:37:46.926Z,102478.06
2019-02-04T14:39:52.968Z,102479.05
2019-02-04T14:41:59.139Z,102476.61
2019-02-04T14:44:10.529Z,102473.39
2019-02-04T14:46:29.886Z,102480.87
2019-02-04T14:49:12.498Z,102479.55
2019-02-04T14:51:23.371Z,102476.69
2019-02-04T14:53:52.249Z,102470.36
2019-02-04T14:56:12.230Z,102469.95
2019-02-04T14:58:41.009Z,102467.20
2019-02-04T15:01:30.716Z,102473.45
2019-02-04T15:03:53.035Z,102471.62
2019-02-04T15:06:28.587Z,102477.55
2019-02-04T15:09:04.801Z,102479.28
2019-02-04T15:11:27.190Z,102483.85
2019-02-04T15:13:59.247Z,102491.52
2019-02-04T15:16:30.039Z,102486.69
2019-02-04T15:19:07.679Z,102487.57
2019-02-04T15:21:50.906Z,102479.80
2019-02-04T15:24:14.879Z,102483.97
2019-02-04T15:26:43.977Z,102490.67
2019-02-04T15:28:59.943Z,102494.76
2019-02-04T15:31:52.500Z,102507.08
2019-02-04T15:34:09.901Z,102507.05
2019-02-04T15:36:29.611Z,102509.19
2019-02-04T15:38:41.788Z,102508.37
2019-02-04T15:41:10.526Z,102508.75
2019-02-04T15:43:27.754Z,102506.67
2019-02-04T15:45:44.820Z,102503.09
2019-02-04T15:47:56.098Z,102504.49
2019-02-04T15:50:37.149Z,102509.97
2019-02-04T15:52:45.463Z,102505.68
2019-02-04T15:54:51.960Z,102507.69
2019-02-04T15:56:59.609Z,102505.98
2019-02-04T15:59:06.101Z,102501.63
2019-02-04T16:01:12.696Z,102496.42
2019-02-04T16:03:20.712Z,102494.24
2019-02-04T16:05:27.281Z,102497.72
2019-02-04T16:07:33.938Z,102495.47
2019-02-04T16:09:42.118Z,102496.31
2019-02-04T16:11:48.818Z,102496.31
2019-02-04T16:13:55.391Z,102499.79
2019-02-04T16:16:01.865Z,102496.77
2019-02-04T16:18:09.000Z,102499.00
2019-02-04T16:20:24.112Z,102490.47
2019-02-04T16:22:30.467Z,102490.98
2019-02-04T16:24:37.049Z,102495.23
2019-02-04T16:26:44.671Z,102485.80
2019-02-04T16:28:51.240Z,102487.06
2019-02-04T16:30:57.911Z,102481.72
2019-02-04T16:33:04.709Z,102483.89
2019-02-04T16:35:18.141Z,102482.13
2019-02-04T16:37:25.078Z,102480.02
2019-02-04T16:39:31.571Z,102491.59
2019-02-04T16:41:38.072Z,102489.38
2019-02-04T16:43:44.563Z,102491.04
2019-02-04T16:45:50.942Z,102491.86
2019-02-04T16:47:57.853Z,102494.06
2019-02-04T16:50:05.792Z,102494.34
2019-02-04T16:52:12.730Z,102497.81
2019-02-04T16:54:19.790Z,102493.55
2019-02-04T16:56:26.103Z,102497.50
2019-02-04T16:58:32.790Z,102502.20
2019-02-04T17:00:39.464Z,102500.39
2019-02-04T17:02:47.631Z,102502.58
2019-02-04T17:04:54.354Z,102506.38
2019-02-04T17:07:01.612Z,102514.55
2019-02-04T17:09:09.483Z,102515.63
2019-02-04T17:11:16.056Z,102519.40
2019-02-04T17:13:22.641Z,102522.28
2019-02-04T17:15:29.010Z,102520.07
2019-02-04T17:17:35.702Z,102522.17
2019-02-04T17:19:43.728Z,102521.70
2019-02-04T17:21:50.505Z,102517.81
2019-02-04T17:23:57.498Z,102521.18
2019-02-04T17:26:03.972Z,102516.31
2019-02-04T17:28:10.398Z,102519.15
2019-02-04T17:30:20.328Z,102531.89
2019-02-04T17:32:26.942Z,102522.55
2019-02-04T17:34:34.261Z,102521.22
2019-02-04T17:36:40.833Z,102531.74
2019-02-04T17:38:47.393Z,102528.72
2019-02-04T17:40:53.900Z,102531.78
2019-02-04T17:43:00.473Z,102528.27
2019-02-04T17:45:12.358Z,102530.86
2019-02-04T17:47:19.060Z,102534.33
2019-02-04T17:49:25.660Z,102533.37
2019-02-04T17:51:32.354Z,102534.25
2019-02-04T17:53:39.043Z,102545.19
2019-02-04T17:55:45.350Z,102538.87
2019-02-04T17:57:51.949Z,102537.13
2019-02-04T17:59:58.487Z,102531.41
2019-02-04T18:02:05.722Z,102526.91
2019-02-04T18:04:13.895Z,102529.97
2019-02-04T18:06:20.627Z,102530.02
2019-02-04T18:08:27.225Z,102533.84
2019-02-04T18:10:33.836Z,102537.61
2019-02-04T18:12:40.445Z,102534.55
2019-02-04T18:14:47.985Z,102538.42
2019-02-04T18:16:56.173Z,102540.09
2019-02-04T18:19:04.207Z,102538.06
2019-02-04T18:21:11.224Z,102533.37
2019-02-04T18:23:17.706Z,102533.89
2019-02-04T18:25:24.665Z,102535.06
2019-02-04T18:27:31.323Z,102538.83
2019-02-04T18:29:37.958Z,102541.78
2019-02-04T18:31:44.730Z,102546.36
2019-02-04T18:33:51.381Z,102543.66
2019-02-04T18:35:58.105Z,102543.77
2019-02-04T18:38:07.012Z,102544.58
2019-02-04T18:40:22.865Z,102541.55
2019-02-04T18:42:29.992Z,102536.80
2019-02-04T18:44:36.562Z,102546.36
2019-02-04T18:46:43.062Z,102553.74
2019-02-04T18:48:49.671Z,102550.34
2019-02-04T18:50:56.264Z,102548.58
2019-02-04T18:53:03.002Z,102554.22
2019-02-04T18:55:20.627Z,102560.20
2019-02-04T18:57:28.466Z,102559.88
2019-02-04T18:59:34.935Z,102561.50
2019-02-04T19:01:42.113Z,102561.50
2019-02-04T19:03:51.674Z,102563.56
2019-02-04T19:05:58.823Z,102564.16
2019-02-04T19:08:05.791Z,102568.44
2019-02-04T19:10:21.418Z,102565.97
2019-02-04T19:12:28.170Z,102565.92
2019-02-04T19:14:34.666Z,102571.98
2019-02-04T19:16:41.218Z,102577.72
2019-02-04T19:18:48.245Z,102573.27
2019-02-04T19:20:56.551Z,102566.81
2019-02-04T19:23:03.304Z,102568.67
2019-02-04T19:25:13.215Z,102573.02
2019-02-04T19:27:20.095Z,102579.78
2019-02-04T19:29:27.285Z,102583.46
2019-02-04T19:31:34.995Z,102580.36
2019-02-04T19:33:42.291Z,102579.02
2019-02-04T19:35:51.912Z,102590.77
2019-02-04T19:37:59.551Z,102591.58
2019-02-04T19:40:10.705Z,102584.89
2019-02-04T19:42:17.896Z,102584.77
2019-02-04T19:44:24.722Z,102590.42
2019-02-04T19:46:48.062Z,102591.83
2019-02-04T19:48:56.759Z,102596.55
2019-02-04T19:51:03.619Z,102591.06
2019-02-04T19:53:12.072Z,102591.47
2019-02-04T19:55:18.646Z,102588.11
2019-02-04T19:57:25.844Z,102587.41
2019-02-04T19:59:32.463Z,102593.47
2019-02-04T20:01:38.941Z,102597.34
2019-02-04T20:03:45.540Z,102592.58
2019-02-04T20:05:52.309Z,102589.92
2019-02-04T20:08:05.655Z,102594.77
2019-02-04T20:10:18.880Z,102598.12
2019-02-04T20:12:25.422Z,102599.22
2019-02-04T20:14:31.956Z,102597.11
2019-02-04T20:16:39.379Z,102597.44
2019-02-04T20:18:46.910Z,102601.72
2019-02-04T20:20:55.362Z,102599.22
2019-02-04T20:23:03.202Z,102591.58
2019-02-04T20:25:14.072Z,102593.23
2019-02-04T20:27:20.253Z,102594.86
2019-02-04T20:29:26.939Z,102594.12
2019-02-04T20:31:35.070Z,102596.23
2019-02-04T20:33:44.740Z,102593.69
2019-02-04T20:35:53.020Z,102594.94
2019-02-04T20:37:59.681Z,102593.64
2019-02-04T20:40:17.264Z,102587.99
2019-02-04T20:42:24.062Z,102588.11
2019-02-04T20:44:30.998Z,102584.72
2019-02-04T20:46:37.626Z,102580.77
2019-02-04T20:48:44.419Z,102585.89
2019-02-04T20:50:51.472Z,102587.88
2019-02-04T20:52:57.855Z,102593.73
2019-02-04T20:55:06.363Z,102587.36
2019-02-04T20:57:13.083Z,102593.22
2019-02-04T20:59:19.474Z,102596.49
2019-02-04T21:01:26.261Z,102596.73
2019-02-04T21:03:33.322Z,102594.08
2019-02-04T21:05:42.189Z,102594.36
2019-02-04T21:07:50.299Z,102600.01
2019-02-04T21:09:56.683Z,102598.91
2019-02-04T21:12:03.082Z,102598.43
2019-02-04T21:14:10.001Z,102603.67
2019-02-04T21:16:16.828Z,102604.81
2019-02-04T21:18:23.313Z,102601.42
2019-02-04T21:20:31.480Z,102607.55
2019-02-04T21:22:37.872Z,102610.13
2019-02-04T21:24:44.253Z,102601.83
2019-02-04T21:26:50.842Z,102598.51
2019-02-04T21:28:57.503Z,102591.57
2019-02-04T21:31:03.893Z,102599.31
2019-02-04T21:33:10.591Z,102598.63
2019-02-04T21:35:24.750Z,102598.36
2019-02-04T21:40:27.860Z,102594.03
2019-02-04T21:42:34.337Z,102592.17
2019-02-04T21:44:41.271Z,102583.98
2019-02-04T21:46:49.058Z,102581.59
2019-02-04T21:48:56.740Z,102586.04
2019-02-04T21:51:05.700Z,102589.59
2019-02-04T21:53:14.142Z,102582.88
2019-02-04T21:55:22.494Z,102582.77
2019-02-04T21:57:30.123Z,102584.05
2019-02-04T21:59:36.832Z,102584.46
2019-02-04T22:01:43.362Z,102578.00
2019-02-04T22:03:49.631Z,102581.36
2019-02-04T22:05:55.910Z,102580.06
2019-02-04T22:08:02.513Z,102583.53
2019-02-04T22:10:25.854Z,102577.48
2019-02-04T22:12:32.243Z,102580.72
2019-02-04T22:17:36.949Z,102572.23
2019-02-04T22:19:43.570Z,102570.33
2019-02-04T22:21:50.003Z,102574.65
2019-02-04T22:23:56.258Z,102574.65
2019-02-04T22:26:02.631Z,102565.63
2019-02-04T22:28:08.871Z,102562.07
2019-02-04T22:30:31.553Z,102563.80
2019-02-04T22:32:39.743Z,102554.11
2019-02-04T22:34:46.199Z,102556.58
2019-02-04T22:36:52.371Z,102549.11
2019-02-04T22:38:59.776Z,102549.81
2019-02-04T22:41:07.527Z,102548.11
2019-02-04T22:43:13.607Z,102543.72
2019-02-04T22:45:20.141Z,102547.88
2019-02-04T22:47:27.333Z,102546.18
2019-02-04T22:49:33.393Z,102546.51
2019-02-04T22:51:39.433Z,102539.53
2019-02-04T22:53:45.912Z,102540.01
2019-02-04T22:55:52.071Z,102536.95
2019-02-04T22:57:58.119Z,102536.34
2019-02-04T23:00:07.691Z,102529.84
2019-02-04T23:02:14.042Z,102530.94
2019-02-04T23:04:20.106Z,102530.02
2019-02-04T23:06:26.326Z,102535.58
2019-02-04T23:08:32.422Z,102539.05
2019-02-04T23:10:39.723Z,102534.41
2019-02-04T23:12:46.077Z,102540.38
2019-02-04T23:14:52.113Z,102536.92
2019-02-04T23:16:58.148Z,102535.30
2019-02-04T23:19:04.192Z,102534.05
2019-02-04T23:21:11.212Z,102536.70
2019-02-04T23:23:18.140Z,102535.30
2019-02-04T23:25:24.210Z,102535.98
2019-02-04T23:27:30.284Z,102539.05
2019-02-04T23:29:36.443Z,102541.55
2019-02-04T23:31:43.406Z,102538.20
2019-02-04T23:33:50.181Z,102541.27
2019-02-04T23:35:56.242Z,102539.00
2019-02-04T23:38:03.755Z,102540.01
2019-02-04T23:40:12.634Z,102536.73
2019-02-04T23:42:19.317Z,102538.36
2019-02-04T23:44:26.075Z,102539.53
2019-02-04T23:46:33.034Z,102536.91
2019-02-04T23:48:40.989Z,102542.11
2019-02-04T23:50:47.811Z,102548.40
2019-02-04T23:52:54.693Z,102545.22
2019-02-04T23:55:02.984Z,102540.34
2019-02-04T23:57:09.954Z,102535.89
2019-02-04T23:59:16.881Z,102539.61
